sensor_id;sensor_type;location;lat;lon;timestamp;P1;durP1;ratioP1;P2;durP2;ratioP2
417;SDS011;49;48.530;9.200;2023-01-13T00:02:10;4.30;;;2.40;;
417;SDS011;49;48.530;9.200;2023-01-13T00:04:41;4.33;;;2.23;;
417;SDS011;49;48.530;9.200;2023-01-13T00:07:12;9.17;;;2.23;;
417;SDS011;49;48.530;9.200;2023-01-13T00:09:45;3.70;;;2.20;;
417;SDS011;49;48.530;9.200;2023-01-13T00:12:14;3.50;;;2.37;;
417;SDS011;49;48.530;9.200;2023-01-13T00:14:41;5.23;;;2.83;;
417;SDS011;49;48.530;9.200;2023-01-13T00:17:14;3.93;;;2.43;;
417;SDS011;49;48.530;9.200;2023-01-13T00:19:41;2.77;;;2.27;;
417;SDS011;49;48.530;9.200;2023-01-13T00:22:12;4.57;;;2.37;;
417;SDS011;49;48.530;9.200;2023-01-13T00:24:42;2.53;;;2.03;;
417;SDS011;49;48.530;9.200;2023-01-13T00:27:09;2.20;;;2.00;;
417;SDS011;49;48.530;9.200;2023-01-13T00:29:38;4.03;;;2.53;;
417;SDS011;49;48.530;9.200;2023-01-13T00:32:10;4.03;;;2.17;;
417;SDS011;49;48.530;9.200;2023-01-13T00:34:44;6.10;;;2.60;;
417;SDS011;49;48.530;9.200;2023-01-13T00:37:16;3.37;;;2.40;;
417;SDS011;49;48.530;9.200;2023-01-13T00:39:43;4.27;;;2.30;;
417;SDS011;49;48.530;9.200;2023-01-13T00:42:14;4.70;;;2.33;;
417;SDS011;49;48.530;9.200;2023-01-13T00:44:58;6.90;;;2.20;;
417;SDS011;49;48.530;9.200;2023-01-13T00:47:30;4.80;;;2.60;;
417;SDS011;49;48.530;9.200;2023-01-13T00:49:57;5.13;;;2.30;;
417;SDS011;49;48.530;9.200;2023-01-13T00:52:26;5.73;;;2.60;;
417;SDS011;49;48.530;9.200;2023-01-13T00:54:53;6.10;;;2.60;;
417;SDS011;49;48.530;9.200;2023-01-13T00:57:24;4.50;;;2.50;;
417;SDS011;49;48.530;9.200;2023-01-13T00:59:51;6.60;;;2.40;;
417;SDS011;49;48.530;9.200;2023-01-13T01:02:23;7.50;;;2.40;;
417;SDS011;49;48.530;9.200;2023-01-13T01:04:51;6.87;;;2.20;;
417;SDS011;49;48.530;9.200;2023-01-13T01:07:24;7.73;;;2.63;;
417;SDS011;49;48.530;9.200;2023-01-13T01:09:51;7.27;;;2.37;;
417;SDS011;49;48.530;9.200;2023-01-13T01:12:19;3.83;;;2.33;;
417;SDS011;49;48.530;9.200;2023-01-13T01:14:46;3.80;;;2.10;;
417;SDS011;49;48.530;9.200;2023-01-13T01:17:13;2.30;;;2.20;;
417;SDS011;49;48.530;9.200;2023-01-13T01:19:43;3.93;;;2.33;;
417;SDS011;49;48.530;9.200;2023-01-13T01:22:15;3.40;;;2.47;;
417;SDS011;49;48.530;9.200;2023-01-13T01:24:43;3.17;;;2.13;;
417;SDS011;49;48.530;9.200;2023-01-13T01:27:10;6.10;;;2.50;;
417;SDS011;49;48.530;9.200;2023-01-13T01:29:40;4.80;;;2.30;;
417;SDS011;49;48.530;9.200;2023-01-13T01:32:10;7.30;;;2.20;;
417;SDS011;49;48.530;9.200;2023-01-13T01:34:37;2.57;;;2.10;;
417;SDS011;49;48.530;9.200;2023-01-13T01:37:05;2.73;;;2.00;;
417;SDS011;49;48.530;9.200;2023-01-13T01:39:35;2.30;;;2.10;;
417;SDS011;49;48.530;9.200;2023-01-13T01:42:05;5.70;;;2.37;;
417;SDS011;49;48.530;9.200;2023-01-13T01:44:54;5.63;;;2.20;;
417;SDS011;49;48.530;9.200;2023-01-13T01:47:25;4.23;;;2.40;;
417;SDS011;49;48.530;9.200;2023-01-13T01:49:56;5.27;;;2.20;;
417;SDS011;49;48.530;9.200;2023-01-13T01:52:25;2.73;;;2.03;;
417;SDS011;49;48.530;9.200;2023-01-13T01:54:57;3.50;;;2.30;;
417;SDS011;49;48.530;9.200;2023-01-13T01:57:32;2.37;;;2.00;;
417;SDS011;49;48.530;9.200;2023-01-13T02:00:10;2.60;;;2.10;;
417;SDS011;49;48.530;9.200;2023-01-13T02:02:39;2.50;;;2.10;;
417;SDS011;49;48.530;9.200;2023-01-13T02:05:08;5.20;;;2.57;;
417;SDS011;49;48.530;9.200;2023-01-13T02:07:41;4.43;;;2.40;;
417;SDS011;49;48.530;9.200;2023-01-13T02:10:14;2.37;;;2.00;;
417;SDS011;49;48.530;9.200;2023-01-13T02:12:43;6.77;;;2.20;;
417;SDS011;49;48.530;9.200;2023-01-13T02:15:15;2.63;;;2.20;;
417;SDS011;49;48.530;9.200;2023-01-13T02:17:52;2.63;;;2.10;;
417;SDS011;49;48.530;9.200;2023-01-13T02:20:45;6.77;;;2.40;;
417;SDS011;49;48.530;9.200;2023-01-13T02:33:02;4.40;;;2.07;;
417;SDS011;49;48.530;9.200;2023-01-13T02:35:38;2.50;;;2.20;;
417;SDS011;49;48.530;9.200;2023-01-13T02:38:12;3.67;;;2.00;;
417;SDS011;49;48.530;9.200;2023-01-13T02:40:44;4.60;;;2.40;;
417;SDS011;49;48.530;9.200;2023-01-13T02:43:16;5.87;;;2.50;;
417;SDS011;49;48.530;9.200;2023-01-13T02:46:08;4.10;;;2.60;;
417;SDS011;49;48.530;9.200;2023-01-13T02:48:39;5.93;;;2.47;;
417;SDS011;49;48.530;9.200;2023-01-13T02:51:09;2.77;;;2.00;;
417;SDS011;49;48.530;9.200;2023-01-13T02:53:40;5.37;;;2.63;;
417;SDS011;49;48.530;9.200;2023-01-13T02:56:13;3.50;;;2.10;;
417;SDS011;49;48.530;9.200;2023-01-13T02:58:45;4.37;;;2.20;;
417;SDS011;49;48.530;9.200;2023-01-13T03:01:15;3.50;;;2.23;;
417;SDS011;49;48.530;9.200;2023-01-13T03:03:45;5.27;;;2.50;;
417;SDS011;49;48.530;9.200;2023-01-13T03:06:17;3.23;;;2.30;;
417;SDS011;49;48.530;9.200;2023-01-13T03:08:58;3.00;;;2.13;;
417;SDS011;49;48.530;9.200;2023-01-13T03:11:33;3.50;;;2.37;;
417;SDS011;49;48.530;9.200;2023-01-13T03:14:13;2.63;;;2.13;;
417;SDS011;49;48.530;9.200;2023-01-13T03:16:58;2.77;;;2.00;;
417;SDS011;49;48.530;9.200;2023-01-13T03:19:46;3.27;;;2.20;;
417;SDS011;49;48.530;9.200;2023-01-13T03:22:22;4.90;;;2.30;;
417;SDS011;49;48.530;9.200;2023-01-13T03:24:58;4.37;;;2.60;;
417;SDS011;49;48.530;9.200;2023-01-13T03:27:37;4.70;;;2.20;;
417;SDS011;49;48.530;9.200;2023-01-13T03:30:15;7.47;;;2.10;;
417;SDS011;49;48.530;9.200;2023-01-13T03:32:49;4.37;;;1.93;;
417;SDS011;49;48.530;9.200;2023-01-13T03:35:22;9.70;;;2.30;;
417;SDS011;49;48.530;9.200;2023-01-13T03:37:57;5.03;;;2.40;;
417;SDS011;49;48.530;9.200;2023-01-13T03:40:30;2.73;;;1.90;;
417;SDS011;49;48.530;9.200;2023-01-13T03:43:01;3.63;;;2.83;;
417;SDS011;49;48.530;9.200;2023-01-13T03:45:54;8.07;;;2.90;;
417;SDS011;49;48.530;9.200;2023-01-13T03:48:29;3.60;;;2.07;;
417;SDS011;49;48.530;9.200;2023-01-13T03:51:02;7.20;;;2.33;;
417;SDS011;49;48.530;9.200;2023-01-13T03:53:33;3.30;;;1.90;;
417;SDS011;49;48.530;9.200;2023-01-13T03:56:08;2.43;;;2.00;;
417;SDS011;49;48.530;9.200;2023-01-13T03:58:42;2.27;;;2.10;;
417;SDS011;49;48.530;9.200;2023-01-13T04:01:15;4.40;;;2.20;;
417;SDS011;49;48.530;9.200;2023-01-13T04:03:47;8.60;;;3.40;;
417;SDS011;49;48.530;9.200;2023-01-13T04:06:22;4.40;;;1.90;;
417;SDS011;49;48.530;9.200;2023-01-13T04:08:56;3.17;;;2.50;;
417;SDS011;49;48.530;9.200;2023-01-13T04:11:34;3.20;;;2.00;;
417;SDS011;49;48.530;9.200;2023-01-13T04:14:04;4.07;;;2.07;;
417;SDS011;49;48.530;9.200;2023-01-13T04:16:42;2.90;;;2.03;;
417;SDS011;49;48.530;9.200;2023-01-13T04:19:12;2.80;;;2.37;;
417;SDS011;49;48.530;9.200;2023-01-13T04:21:39;2.20;;;2.00;;
417;SDS011;49;48.530;9.200;2023-01-13T04:24:07;2.90;;;2.10;;
417;SDS011;49;48.530;9.200;2023-01-13T04:26:36;3.70;;;2.13;;
417;SDS011;49;48.530;9.200;2023-01-13T04:29:03;2.30;;;1.90;;
417;SDS011;49;48.530;9.200;2023-01-13T04:31:31;3.93;;;1.97;;
417;SDS011;49;48.530;9.200;2023-01-13T04:34:04;3.93;;;2.20;;
417;SDS011;49;48.530;9.200;2023-01-13T04:36:36;2.93;;;1.87;;
417;SDS011;49;48.530;9.200;2023-01-13T04:39:11;3.53;;;2.07;;
417;SDS011;49;48.530;9.200;2023-01-13T04:41:39;2.80;;;2.00;;
417;SDS011;49;48.530;9.200;2023-01-13T04:44:24;2.67;;;2.00;;
417;SDS011;49;48.530;9.200;2023-01-13T04:46:54;3.50;;;2.13;;
417;SDS011;49;48.530;9.200;2023-01-13T04:49:22;3.03;;;1.80;;
417;SDS011;49;48.530;9.200;2023-01-13T04:51:54;3.40;;;2.00;;
417;SDS011;49;48.530;9.200;2023-01-13T04:54:29;3.37;;;2.03;;
417;SDS011;49;48.530;9.200;2023-01-13T04:56:56;2.97;;;2.20;;
417;SDS011;49;48.530;9.200;2023-01-13T04:59:23;2.03;;;1.93;;
417;SDS011;49;48.530;9.200;2023-01-13T05:01:50;2.10;;;2.00;;
417;SDS011;49;48.530;9.200;2023-01-13T05:04:17;2.90;;;2.20;;
417;SDS011;49;48.530;9.200;2023-01-13T05:06:47;2.70;;;1.90;;
417;SDS011;49;48.530;9.200;2023-01-13T05:09:18;2.37;;;1.80;;
417;SDS011;49;48.530;9.200;2023-01-13T05:11:54;1.83;;;1.80;;
417;SDS011;49;48.530;9.200;2023-01-13T05:14:38;2.83;;;1.90;;
417;SDS011;49;48.530;9.200;2023-01-13T05:17:22;3.40;;;2.10;;
417;SDS011;49;48.530;9.200;2023-01-13T05:19:50;3.30;;;2.23;;
417;SDS011;49;48.530;9.200;2023-01-13T05:22:19;2.57;;;2.30;;
417;SDS011;49;48.530;9.200;2023-01-13T05:25:06;2.97;;;2.20;;
417;SDS011;49;48.530;9.200;2023-01-13T05:27:53;4.20;;;2.00;;
417;SDS011;49;48.530;9.200;2023-01-13T05:30:23;2.10;;;2.03;;
417;SDS011;49;48.530;9.200;2023-01-13T05:32:51;2.10;;;1.87;;
417;SDS011;49;48.530;9.200;2023-01-13T05:35:23;1.83;;;1.80;;
417;SDS011;49;48.530;9.200;2023-01-13T05:37:50;1.90;;;1.80;;
417;SDS011;49;48.530;9.200;2023-01-13T05:40:20;2.00;;;1.90;;
417;SDS011;49;48.530;9.200;2023-01-13T05:43:08;2.30;;;1.70;;
417;SDS011;49;48.530;9.200;2023-01-13T05:45:49;2.43;;;2.10;;
417;SDS011;49;48.530;9.200;2023-01-13T05:48:21;1.70;;;1.70;;
417;SDS011;49;48.530;9.200;2023-01-13T05:50:53;1.90;;;1.80;;
417;SDS011;49;48.530;9.200;2023-01-13T05:53:25;2.20;;;2.03;;
417;SDS011;49;48.530;9.200;2023-01-13T05:55:53;1.80;;;1.77;;
417;SDS011;49;48.530;9.200;2023-01-13T05:58:24;1.90;;;1.83;;
417;SDS011;49;48.530;9.200;2023-01-13T06:00:52;2.93;;;2.07;;
417;SDS011;49;48.530;9.200;2023-01-13T06:03:26;2.53;;;2.10;;
417;SDS011;49;48.530;9.200;2023-01-13T06:05:53;2.63;;;2.00;;
417;SDS011;49;48.530;9.200;2023-01-13T06:08:23;2.87;;;2.00;;
417;SDS011;49;48.530;9.200;2023-01-13T06:10:50;2.30;;;2.10;;
417;SDS011;49;48.530;9.200;2023-01-13T06:13:19;3.77;;;1.80;;
417;SDS011;49;48.530;9.200;2023-01-13T06:15:49;3.43;;;2.10;;
417;SDS011;49;48.530;9.200;2023-01-13T06:18:18;1.73;;;1.70;;
417;SDS011;49;48.530;9.200;2023-01-13T06:20:47;3.20;;;2.03;;
417;SDS011;49;48.530;9.200;2023-01-13T06:23:14;1.80;;;1.80;;
417;SDS011;49;48.530;9.200;2023-01-13T06:25:43;3.00;;;1.90;;
417;SDS011;49;48.530;9.200;2023-01-13T06:28:16;4.00;;;2.50;;
417;SDS011;49;48.530;9.200;2023-01-13T06:30:45;2.47;;;2.27;;
417;SDS011;49;48.530;9.200;2023-01-13T06:33:19;2.20;;;1.87;;
417;SDS011;49;48.530;9.200;2023-01-13T06:35:51;1.90;;;1.80;;
417;SDS011;49;48.530;9.200;2023-01-13T06:38:23;2.90;;;2.10;;
417;SDS011;49;48.530;9.200;2023-01-13T06:40:52;2.30;;;1.97;;
417;SDS011;49;48.530;9.200;2023-01-13T06:43:20;3.73;;;1.90;;
417;SDS011;49;48.530;9.200;2023-01-13T06:45:48;2.23;;;2.03;;
417;SDS011;49;48.530;9.200;2023-01-13T06:48:18;2.10;;;1.90;;
417;SDS011;49;48.530;9.200;2023-01-13T06:50:49;2.77;;;1.93;;
417;SDS011;49;48.530;9.200;2023-01-13T06:53:16;4.70;;;1.90;;
417;SDS011;49;48.530;9.200;2023-01-13T06:55:44;2.10;;;1.80;;
417;SDS011;49;48.530;9.200;2023-01-13T06:58:13;11.70;;;1.93;;
417;SDS011;49;48.530;9.200;2023-01-13T07:00:48;2.77;;;1.90;;
417;SDS011;49;48.530;9.200;2023-01-13T07:03:18;1.80;;;1.80;;
417;SDS011;49;48.530;9.200;2023-01-13T07:05:50;1.87;;;1.77;;
417;SDS011;49;48.530;9.200;2023-01-13T07:08:20;5.67;;;1.83;;
417;SDS011;49;48.530;9.200;2023-01-13T07:10:50;2.10;;;1.83;;
417;SDS011;49;48.530;9.200;2023-01-13T07:13:21;1.90;;;1.70;;
417;SDS011;49;48.530;9.200;2023-01-13T07:16:12;4.00;;;2.87;;
417;SDS011;49;48.530;9.200;2023-01-13T07:18:44;4.13;;;2.60;;
417;SDS011;49;48.530;9.200;2023-01-13T07:21:17;2.37;;;1.80;;
417;SDS011;49;48.530;9.200;2023-01-13T07:23:44;1.90;;;1.90;;
417;SDS011;49;48.530;9.200;2023-01-13T07:26:12;3.60;;;1.83;;
417;SDS011;49;48.530;9.200;2023-01-13T07:28:40;2.23;;;2.03;;
417;SDS011;49;48.530;9.200;2023-01-13T07:31:16;1.70;;;1.60;;
417;SDS011;49;48.530;9.200;2023-01-13T07:33:45;2.47;;;1.97;;
417;SDS011;49;48.530;9.200;2023-01-13T07:36:14;1.90;;;1.80;;
417;SDS011;49;48.530;9.200;2023-01-13T07:38:43;2.13;;;1.77;;
417;SDS011;49;48.530;9.200;2023-01-13T07:41:13;2.97;;;2.00;;
417;SDS011;49;48.530;9.200;2023-01-13T07:44:08;4.40;;;1.80;;
417;SDS011;49;48.530;9.200;2023-01-13T07:46:40;2.20;;;1.90;;
417;SDS011;49;48.530;9.200;2023-01-13T07:49:07;2.00;;;1.83;;
417;SDS011;49;48.530;9.200;2023-01-13T07:51:42;1.90;;;1.80;;
417;SDS011;49;48.530;9.200;2023-01-13T07:54:14;1.97;;;1.80;;
417;SDS011;49;48.530;9.200;2023-01-13T07:56:46;2.00;;;1.90;;
417;SDS011;49;48.530;9.200;2023-01-13T07:59:15;1.80;;;1.70;;
417;SDS011;49;48.530;9.200;2023-01-13T08:01:49;3.33;;;1.80;;
417;SDS011;49;48.530;9.200;2023-01-13T08:04:18;3.30;;;2.00;;
417;SDS011;49;48.530;9.200;2023-01-13T08:06:47;2.00;;;1.80;;
417;SDS011;49;48.530;9.200;2023-01-13T08:09:19;1.70;;;1.70;;
417;SDS011;49;48.530;9.200;2023-01-13T08:11:46;2.07;;;1.93;;
417;SDS011;49;48.530;9.200;2023-01-13T08:14:35;2.30;;;1.90;;
417;SDS011;49;48.530;9.200;2023-01-13T08:17:09;3.20;;;2.07;;
417;SDS011;49;48.530;9.200;2023-01-13T08:19:36;8.20;;;2.10;;
417;SDS011;49;48.530;9.200;2023-01-13T08:22:03;3.30;;;2.00;;
417;SDS011;49;48.530;9.200;2023-01-13T08:24:29;2.70;;;2.10;;
417;SDS011;49;48.530;9.200;2023-01-13T08:26:56;3.10;;;1.90;;
417;SDS011;49;48.530;9.200;2023-01-13T08:29:23;2.00;;;1.90;;
417;SDS011;49;48.530;9.200;2023-01-13T08:31:52;2.57;;;1.90;;
417;SDS011;49;48.530;9.200;2023-01-13T08:34:20;2.33;;;2.00;;
417;SDS011;49;48.530;9.200;2023-01-13T08:36:48;2.20;;;2.10;;
417;SDS011;49;48.530;9.200;2023-01-13T08:39:15;5.13;;;2.10;;
417;SDS011;49;48.530;9.200;2023-01-13T08:41:42;3.17;;;2.10;;
417;SDS011;49;48.530;9.200;2023-01-13T08:44:22;3.60;;;1.90;;
417;SDS011;49;48.530;9.200;2023-01-13T08:46:52;2.30;;;2.00;;
417;SDS011;49;48.530;9.200;2023-01-13T08:49:21;1.97;;;1.90;;
417;SDS011;49;48.530;9.200;2023-01-13T08:51:48;2.67;;;2.03;;
417;SDS011;49;48.530;9.200;2023-01-13T08:54:16;1.80;;;1.80;;
417;SDS011;49;48.530;9.200;2023-01-13T08:56:44;2.00;;;1.90;;
417;SDS011;49;48.530;9.200;2023-01-13T08:59:13;2.10;;;2.00;;
417;SDS011;49;48.530;9.200;2023-01-13T09:01:58;2.30;;;2.10;;
417;SDS011;49;48.530;9.200;2023-01-13T09:04:29;1.90;;;1.80;;
417;SDS011;49;48.530;9.200;2023-01-13T09:06:59;2.40;;;2.20;;
417;SDS011;49;48.530;9.200;2023-01-13T09:09:29;2.30;;;2.10;;
417;SDS011;49;48.530;9.200;2023-01-13T09:11:59;4.00;;;2.30;;
417;SDS011;49;48.530;9.200;2023-01-13T09:14:43;2.33;;;2.13;;
417;SDS011;49;48.530;9.200;2023-01-13T09:17:13;1.90;;;1.90;;
417;SDS011;49;48.530;9.200;2023-01-13T09:19:42;1.93;;;1.90;;
417;SDS011;49;48.530;9.200;2023-01-13T09:22:09;2.20;;;2.03;;
417;SDS011;49;48.530;9.200;2023-01-13T09:24:42;2.67;;;2.27;;
417;SDS011;49;48.530;9.200;2023-01-13T09:27:12;3.03;;;2.20;;
417;SDS011;49;48.530;9.200;2023-01-13T09:29:40;2.43;;;1.90;;
417;SDS011;49;48.530;9.200;2023-01-13T09:32:09;2.93;;;2.73;;
417;SDS011;49;48.530;9.200;2023-01-13T09:34:43;1.87;;;1.83;;
417;SDS011;49;48.530;9.200;2023-01-13T09:37:24;2.73;;;2.00;;
417;SDS011;49;48.530;9.200;2023-01-13T09:39:54;1.97;;;1.90;;
417;SDS011;49;48.530;9.200;2023-01-13T09:42:25;2.07;;;1.80;;
417;SDS011;49;48.530;9.200;2023-01-13T09:45:25;3.53;;;1.80;;
417;SDS011;49;48.530;9.200;2023-01-13T09:47:58;1.90;;;1.87;;
417;SDS011;49;48.530;9.200;2023-01-13T09:50:36;3.10;;;2.00;;
417;SDS011;49;48.530;9.200;2023-01-13T09:53:20;2.30;;;2.10;;
417;SDS011;49;48.530;9.200;2023-01-13T09:55:57;2.93;;;2.30;;
417;SDS011;49;48.530;9.200;2023-01-13T09:58:32;3.47;;;2.70;;
417;SDS011;49;48.530;9.200;2023-01-13T10:01:04;2.57;;;2.40;;
417;SDS011;49;48.530;9.200;2023-01-13T10:03:42;2.90;;;2.40;;
417;SDS011;49;48.530;9.200;2023-01-13T10:06:16;7.20;;;2.37;;
417;SDS011;49;48.530;9.200;2023-01-13T10:08:46;5.63;;;2.17;;
417;SDS011;49;48.530;9.200;2023-01-13T10:11:15;2.77;;;2.30;;
417;SDS011;49;48.530;9.200;2023-01-13T10:14:02;2.53;;;2.20;;
417;SDS011;49;48.530;9.200;2023-01-13T10:16:39;4.37;;;2.47;;
417;SDS011;49;48.530;9.200;2023-01-13T10:19:11;2.60;;;2.20;;
417;SDS011;49;48.530;9.200;2023-01-13T10:21:58;2.27;;;2.10;;
417;SDS011;49;48.530;9.200;2023-01-13T10:24:48;2.70;;;2.20;;
417;SDS011;49;48.530;9.200;2023-01-13T10:27:42;2.67;;;2.50;;
417;SDS011;49;48.530;9.200;2023-01-13T10:30:17;4.37;;;2.20;;
417;SDS011;49;48.530;9.200;2023-01-13T10:32:46;3.23;;;2.53;;
417;SDS011;49;48.530;9.200;2023-01-13T10:38:16;8.00;;;2.50;;
417;SDS011;49;48.530;9.200;2023-01-13T10:40:48;2.63;;;2.20;;
417;SDS011;49;48.530;9.200;2023-01-13T10:43:18;2.43;;;2.10;;
417;SDS011;49;48.530;9.200;2023-01-13T10:45:56;3.10;;;2.67;;
417;SDS011;49;48.530;9.200;2023-01-13T10:48:36;3.10;;;2.27;;
417;SDS011;49;48.530;9.200;2023-01-13T10:51:14;5.70;;;2.60;;
417;SDS011;49;48.530;9.200;2023-01-13T10:53:48;2.50;;;2.30;;
417;SDS011;49;48.530;9.200;2023-01-13T10:56:20;3.10;;;2.70;;
417;SDS011;49;48.530;9.200;2023-01-13T10:58:56;2.43;;;2.23;;
417;SDS011;49;48.530;9.200;2023-01-13T11:01:42;5.07;;;2.63;;
417;SDS011;49;48.530;9.200;2023-01-13T11:04:28;2.43;;;2.27;;
417;SDS011;49;48.530;9.200;2023-01-13T11:07:15;5.53;;;2.23;;
417;SDS011;49;48.530;9.200;2023-01-13T11:10:00;4.30;;;2.37;;
417;SDS011;49;48.530;9.200;2023-01-13T11:12:43;3.67;;;2.10;;
417;SDS011;49;48.530;9.200;2023-01-13T11:15:15;2.63;;;2.00;;
417;SDS011;49;48.530;9.200;2023-01-13T11:17:47;5.77;;;2.87;;
417;SDS011;49;48.530;9.200;2023-01-13T11:20:25;1.80;;;1.73;;
417;SDS011;49;48.530;9.200;2023-01-13T11:22:57;2.03;;;1.90;;
417;SDS011;49;48.530;9.200;2023-01-13T11:25:31;2.80;;;2.40;;
417;SDS011;49;48.530;9.200;2023-01-13T11:28:13;1.93;;;1.90;;
417;SDS011;49;48.530;9.200;2023-01-13T11:30:51;2.23;;;2.00;;
417;SDS011;49;48.530;9.200;2023-01-13T11:33:26;3.57;;;2.40;;
417;SDS011;49;48.530;9.200;2023-01-13T11:36:03;2.60;;;2.20;;
417;SDS011;49;48.530;9.200;2023-01-13T11:38:46;3.67;;;2.87;;
417;SDS011;49;48.530;9.200;2023-01-13T11:41:19;2.57;;;2.40;;
417;SDS011;49;48.530;9.200;2023-01-13T11:43:54;2.87;;;2.00;;
417;SDS011;49;48.530;9.200;2023-01-13T11:46:29;3.07;;;2.47;;
417;SDS011;49;48.530;9.200;2023-01-13T11:49:42;5.80;;;3.57;;
417;SDS011;49;48.530;9.200;2023-01-13T11:52:26;4.10;;;2.53;;
417;SDS011;49;48.530;9.200;2023-01-13T11:55:04;3.23;;;2.30;;
417;SDS011;49;48.530;9.200;2023-01-13T11:57:59;4.17;;;2.17;;
417;SDS011;49;48.530;9.200;2023-01-13T12:01:01;8.40;;;3.37;;
417;SDS011;49;48.530;9.200;2023-01-13T12:03:49;4.83;;;3.17;;
417;SDS011;49;48.530;9.200;2023-01-13T12:06:31;6.27;;;3.57;;
417;SDS011;49;48.530;9.200;2023-01-13T12:12:02;4.10;;;2.40;;
417;SDS011;49;48.530;9.200;2023-01-13T12:15:04;6.50;;;3.20;;
417;SDS011;49;48.530;9.200;2023-01-13T12:18:07;3.87;;;3.00;;
417;SDS011;49;48.530;9.200;2023-01-13T12:21:00;4.17;;;2.63;;
417;SDS011;49;48.530;9.200;2023-01-13T12:30:28;4.43;;;2.30;;
417;SDS011;49;48.530;9.200;2023-01-13T12:33:18;7.03;;;3.00;;
417;SDS011;49;48.530;9.200;2023-01-13T12:42:16;7.50;;;2.87;;
417;SDS011;49;48.530;9.200;2023-01-13T12:57:57;2.60;;;2.40;;
417;SDS011;49;48.530;9.200;2023-01-13T13:01:11;5.20;;;2.47;;
417;SDS011;49;48.530;9.200;2023-01-13T13:06:52;6.50;;;2.70;;
417;SDS011;49;48.530;9.200;2023-01-13T13:09:42;6.60;;;2.80;;
417;SDS011;49;48.530;9.200;2023-01-13T13:12:31;5.03;;;2.60;;
417;SDS011;49;48.530;9.200;2023-01-13T13:15:34;6.87;;;2.70;;
417;SDS011;49;48.530;9.200;2023-01-13T13:18:25;4.90;;;2.70;;
417;SDS011;49;48.530;9.200;2023-01-13T13:21:01;3.57;;;2.40;;
417;SDS011;49;48.530;9.200;2023-01-13T13:24:02;13.50;;;3.50;;
417;SDS011;49;48.530;9.200;2023-01-13T13:26:35;9.13;;;2.93;;
417;SDS011;49;48.530;9.200;2023-01-13T13:38:54;3.07;;;2.27;;
417;SDS011;49;48.530;9.200;2023-01-13T13:42:00;6.10;;;3.23;;
417;SDS011;49;48.530;9.200;2023-01-13T13:45:00;9.00;;;2.90;;
417;SDS011;49;48.530;9.200;2023-01-13T13:50:50;10.03;;;4.40;;
417;SDS011;49;48.530;9.200;2023-01-13T13:53:31;7.40;;;3.37;;
417;SDS011;49;48.530;9.200;2023-01-13T13:56:15;13.00;;;2.90;;
417;SDS011;49;48.530;9.200;2023-01-13T13:58:53;7.93;;;2.93;;
417;SDS011;49;48.530;9.200;2023-01-13T14:01:31;7.60;;;3.13;;
417;SDS011;49;48.530;9.200;2023-01-13T14:04:17;9.90;;;4.97;;
417;SDS011;49;48.530;9.200;2023-01-13T14:06:56;5.47;;;2.87;;
417;SDS011;49;48.530;9.200;2023-01-13T14:12:36;6.00;;;2.80;;
417;SDS011;49;48.530;9.200;2023-01-13T14:15:31;7.53;;;3.73;;
417;SDS011;49;48.530;9.200;2023-01-13T14:18:16;10.37;;;3.87;;
417;SDS011;49;48.530;9.200;2023-01-13T14:20:53;5.67;;;2.83;;
417;SDS011;49;48.530;9.200;2023-01-13T14:23:32;4.77;;;2.87;;
417;SDS011;49;48.530;9.200;2023-01-13T14:26:06;5.80;;;3.33;;
417;SDS011;49;48.530;9.200;2023-01-13T14:28:48;9.80;;;3.80;;
417;SDS011;49;48.530;9.200;2023-01-13T14:31:21;8.40;;;3.27;;
417;SDS011;49;48.530;9.200;2023-01-13T14:33:52;9.63;;;4.00;;
417;SDS011;49;48.530;9.200;2023-01-13T14:36:35;8.57;;;3.20;;
417;SDS011;49;48.530;9.200;2023-01-13T14:42:12;12.03;;;3.20;;
417;SDS011;49;48.530;9.200;2023-01-13T14:44:44;11.77;;;4.10;;
417;SDS011;49;48.530;9.200;2023-01-13T14:47:20;14.90;;;3.90;;
417;SDS011;49;48.530;9.200;2023-01-13T14:49:52;5.03;;;3.47;;
417;SDS011;49;48.530;9.200;2023-01-13T14:52:25;7.57;;;3.60;;
417;SDS011;49;48.530;9.200;2023-01-13T15:03:54;12.37;;;3.43;;
417;SDS011;49;48.530;9.200;2023-01-13T15:06:44;8.30;;;3.00;;
417;SDS011;49;48.530;9.200;2023-01-13T15:09:17;13.43;;;3.33;;
417;SDS011;49;48.530;9.200;2023-01-13T15:11:54;10.47;;;3.83;;
417;SDS011;49;48.530;9.200;2023-01-13T15:14:28;12.90;;;3.20;;
417;SDS011;49;48.530;9.200;2023-01-13T15:17:09;11.93;;;3.30;;
417;SDS011;49;48.530;9.200;2023-01-13T15:19:41;8.53;;;2.97;;
417;SDS011;49;48.530;9.200;2023-01-13T15:22:13;10.70;;;4.00;;
417;SDS011;49;48.530;9.200;2023-01-13T15:24:48;10.70;;;3.90;;
417;SDS011;49;48.530;9.200;2023-01-13T15:27:17;14.70;;;4.93;;
417;SDS011;49;48.530;9.200;2023-01-13T15:29:54;14.50;;;4.47;;
417;SDS011;49;48.530;9.200;2023-01-13T15:32:45;14.70;;;2.93;;
417;SDS011;49;48.530;9.200;2023-01-13T15:35:25;9.33;;;3.20;;
417;SDS011;49;48.530;9.200;2023-01-13T15:38:08;10.93;;;3.13;;
417;SDS011;49;48.530;9.200;2023-01-13T15:40:54;8.83;;;3.03;;
417;SDS011;49;48.530;9.200;2023-01-13T15:43:29;11.27;;;3.30;;
417;SDS011;49;48.530;9.200;2023-01-13T15:46:21;6.70;;;2.90;;
417;SDS011;49;48.530;9.200;2023-01-13T15:49:15;5.90;;;3.40;;
417;SDS011;49;48.530;9.200;2023-01-13T15:51:58;11.13;;;3.50;;
417;SDS011;49;48.530;9.200;2023-01-13T15:54:34;8.17;;;3.30;;
417;SDS011;49;48.530;9.200;2023-01-13T15:57:04;7.27;;;3.27;;
417;SDS011;49;48.530;9.200;2023-01-13T15:59:46;9.83;;;3.20;;
417;SDS011;49;48.530;9.200;2023-01-13T16:02:15;13.03;;;3.40;;
417;SDS011;49;48.530;9.200;2023-01-13T16:05:03;10.20;;;3.87;;
417;SDS011;49;48.530;9.200;2023-01-13T16:07:38;12.57;;;3.67;;
417;SDS011;49;48.530;9.200;2023-01-13T16:10:15;7.13;;;3.10;;
417;SDS011;49;48.530;9.200;2023-01-13T16:12:59;10.10;;;3.20;;
417;SDS011;49;48.530;9.200;2023-01-13T16:15:30;10.70;;;3.53;;
417;SDS011;49;48.530;9.200;2023-01-13T16:18:13;11.27;;;3.83;;
417;SDS011;49;48.530;9.200;2023-01-13T16:20:57;19.43;;;3.97;;
417;SDS011;49;48.530;9.200;2023-01-13T16:23:48;15.73;;;4.97;;
417;SDS011;49;48.530;9.200;2023-01-13T16:26:27;9.20;;;3.90;;
417;SDS011;49;48.530;9.200;2023-01-13T16:29:08;11.40;;;4.50;;
417;SDS011;49;48.530;9.200;2023-01-13T16:31:40;11.20;;;3.63;;
417;SDS011;49;48.530;9.200;2023-01-13T16:34:14;18.10;;;4.00;;
417;SDS011;49;48.530;9.200;2023-01-13T16:36:45;10.67;;;3.60;;
417;SDS011;49;48.530;9.200;2023-01-13T16:39:25;8.97;;;3.90;;
417;SDS011;49;48.530;9.200;2023-01-13T16:42:09;10.40;;;4.10;;
417;SDS011;49;48.530;9.200;2023-01-13T16:44:46;10.37;;;3.80;;
417;SDS011;49;48.530;9.200;2023-01-13T16:47:21;11.70;;;4.13;;
417;SDS011;49;48.530;9.200;2023-01-13T16:50:24;9.10;;;3.50;;
417;SDS011;49;48.530;9.200;2023-01-13T16:53:01;17.17;;;3.77;;
417;SDS011;49;48.530;9.200;2023-01-13T16:55:33;12.80;;;3.67;;
417;SDS011;49;48.530;9.200;2023-01-13T16:58:08;17.83;;;3.97;;
417;SDS011;49;48.530;9.200;2023-01-13T17:00:43;7.50;;;3.20;;
417;SDS011;49;48.530;9.200;2023-01-13T17:03:11;10.17;;;3.37;;
417;SDS011;49;48.530;9.200;2023-01-13T17:05:43;11.00;;;3.70;;
417;SDS011;49;48.530;9.200;2023-01-13T17:08:20;11.00;;;3.73;;
417;SDS011;49;48.530;9.200;2023-01-13T17:10:54;9.67;;;4.37;;
417;SDS011;49;48.530;9.200;2023-01-13T17:13:34;15.33;;;3.60;;
417;SDS011;49;48.530;9.200;2023-01-13T17:16:01;10.63;;;4.47;;
417;SDS011;49;48.530;9.200;2023-01-13T17:18:31;13.07;;;3.90;;
417;SDS011;49;48.530;9.200;2023-01-13T17:20:58;13.00;;;4.67;;
417;SDS011;49;48.530;9.200;2023-01-13T17:23:28;7.27;;;4.07;;
417;SDS011;49;48.530;9.200;2023-01-13T17:25:58;12.73;;;4.57;;
417;SDS011;49;48.530;9.200;2023-01-13T17:28:25;12.87;;;4.57;;
417;SDS011;49;48.530;9.200;2023-01-13T17:30:56;9.67;;;4.40;;
417;SDS011;49;48.530;9.200;2023-01-13T17:33:28;13.13;;;4.70;;
417;SDS011;49;48.530;9.200;2023-01-13T17:36:07;15.10;;;3.47;;
417;SDS011;49;48.530;9.200;2023-01-13T17:38:40;8.83;;;3.40;;
417;SDS011;49;48.530;9.200;2023-01-13T17:41:15;8.77;;;2.80;;
417;SDS011;49;48.530;9.200;2023-01-13T17:43:42;11.67;;;3.37;;
417;SDS011;49;48.530;9.200;2023-01-13T17:46:09;6.93;;;3.27;;
417;SDS011;49;48.530;9.200;2023-01-13T17:48:47;5.33;;;2.90;;
417;SDS011;49;48.530;9.200;2023-01-13T17:51:15;10.93;;;3.60;;
417;SDS011;49;48.530;9.200;2023-01-13T17:53:48;8.23;;;3.07;;
417;SDS011;49;48.530;9.200;2023-01-13T17:56:15;8.67;;;3.63;;
417;SDS011;49;48.530;9.200;2023-01-13T17:58:42;3.83;;;2.97;;
417;SDS011;49;48.530;9.200;2023-01-13T18:01:12;6.30;;;3.10;;
417;SDS011;49;48.530;9.200;2023-01-13T18:03:42;8.40;;;3.20;;